Tiempo atmosférico en la estación meteorológica de A Lama, Pontevedra (395 m.)



Fecha
DESCASC
Temp. máxima en grados centígrados (hora)
DESCASC
Temp. mínima en grados centígrados (hora)
DESCASC
Temp. media en grados centígrados
DESCASC
Racha de viento máxima en m/sg (hora)
DESCASC
Velocidad máxima media en intervalos de 10 minutos(hora)
DESCASC
Precipitaciones diarias en mm
DESCASC
Precipitaciones de 00:00 a 06:00 en mm
DESCASC
Precipitaciones de 06:00 a 12:00 en mm
DESCASC
Precipitaciones de 12:00 a 18:00 en mm
DESCASC
Precipitaciones de 18:00 a 24:00 en mm
DESCASC
19-04-2018 23.8 (14:50) 7.8 (04:10) 15.8 10.56 (23:30) 6.67 (23:59) -- -- -- -- --
18-04-2018 24.2 (16:10) 4.7 (06:40) 14.5 11.11 (12:10) 5 (12:20) -- -- -- -- --
17-04-2018 19.9 (16:50) 9.2 (23:59) 14.5 13.33 (14:50) 4.72 (14:00) -- -- -- -- --
16-04-2018 15.8 (16:10) 4.8 (04:40) 10.3 11.67 (14:30) 5.28 (18:10) -- -- -- -- --
15-04-2018 11.7 (12:30) 6.3 (00:00) 9 8.06 (04:10) 4.17 (17:10) -- -- -- -- --
14-04-2018 14.6 (16:40) 2.4 (00:00) 8.5 8.89 (19:00) 5 (18:40) -- -- -- -- --
13-04-2018 12.1 (14:00) 4.7 (00:00) 8.4 6.11 (18:40) 3.33 (15:30) -- -- -- -- --
12-04-2018 12.6 (14:50) 7.1 (00:00) 9.9 9.44 (14:40) 4.72 (11:00) -- -- -- -- --
11-04-2018 9.5 (16:20) 0.2 (00:00) 4.9 5.83 (11:30) 3.06 (11:30) -- -- -- -- --
10-04-2018 8.7 (13:40) 2.9 (00:00) 5.8 12.22 (04:00) 6.11 (04:40) -- -- -- -- --
09-04-2018 13.4 (16:20) 4.1 (00:00) 8.7 7.78 (17:00) 4.17 (16:40) -- -- -- -- --
08-04-2018 10.8 (15:10) 4.7 (00:00) 7.8 9.17 (13:50) 4.44 (12:50) -- -- -- -- --
07-04-2018 12.3 (14:00) 6.7 (00:00) 9.5 10 (17:00) 3.89 (04:40) -- -- -- -- --
06-04-2018 10.2 (00:00) 6.5 (00:00) 8.3 11.11 (00:50) 4.44 (00:40) -- -- -- -- --
05-04-2018 16.7 (18:20) 5.1 (00:00) 10.9 10.83 (15:50) 5 (16:00) -- -- -- -- --
04-04-2018 11.6 (15:20) 7 (00:00) 9.3 11.67 (08:00) 6.11 (11:40) -- -- -- -- --
03-04-2018 12 (16:30) 6.5 (00:00) 9.3 19.17 (17:20) 7.78 (17:10) -- -- -- -- --
02-04-2018 13 (15:30) 9.1 (00:00) 11.1 14.17 (15:30) 6.11 (15:30) -- -- -- -- --
01-04-2018 16.3 (17:40) 7.4 (00:00) 11.8 11.67 (13:30) 6.11 (13:10) -- -- -- -- --
31-03-2018 10.8 (15:00) 2 (00:00) 6.4 8.89 (00:30) 4.17 (16:20) -- -- -- -- --
30-03-2018 7.1 (19:10) 1.2 (00:00) 4.1 13.89 (13:50) 7.5 (21:40) -- -- -- -- --
29-03-2018 8.6 (17:00) 1.3 (00:00) 5 15 (21:50) 6.11 (23:10) 31.6 0 5.8 11.8 14
28-03-2018 10.5 (18:40) 5.3 (00:00) 7.9 10 (14:10) 5 (14:10) 13.6 0.4 2.4 10.8 0
27-03-2018 14.7 (17:20) 8.4 (00:00) 11.5 5.28 (18:00) 2.78 (18:30) 0 0 0 0 0
26-03-2018 11.5 (15:10) 1.3 (00:00) 6.4 4.72 (14:50) 2.5 (16:20) 0 0 0 0 0
25-03-2018 10.7 (16:40) 1.8 (00:00) 6.2 10.83 (14:30) 5.28 (14:30) 2.2 1.8 0 0.4 0
24-03-2018 10.3 (15:10) 4.5 (00:00) 7.4 14.44 (14:10) 8.61 (14:20) 14.4 3.2 5 3.2 3
23-03-2018 11.4 (14:40) 4.9 (00:00) 8.1 15.83 (18:40) 8.33 (19:00) 26.8 4.6 2 9.8 10.4

Gráficas

Temp. máximas Temp. mínimas Temp. medias Precipitaciones Rachas de viento máximas Velocidades máximas media en intervalos de 10 minutos

Datos horarios

Fecha y hora oficial Temperatura (ºC) Velocidad del viento (km/h) Dirección del viento Racha (km/h) Dirección de racha Precipitación (mm) Presión (hPa) Tendencia (hPa) Humedad (%)
2018-04-21 23:00:00 15.2 4 Sudoeste 9 Sudoeste 0 -- -- 91
2018-04-21 22:00:00 15.6 4 Noroeste 7 Norte 0.2 -- -- 93
2018-04-21 21:00:00 16.2 2 Nordeste 5 Norte 0.2 -- -- 91
2018-04-21 20:00:00 16.7 3 Nordeste 5 Nordeste 0 -- -- 89
2018-04-21 19:00:00 16.3 0 Calma 8 Nordeste 0.2 -- -- 92
2018-04-21 18:00:00 15.9 3 Nordeste 19 Sudoeste 0.2 -- -- 89
2018-04-21 17:00:00 19.9 20 Oeste 48 Oeste 0 -- -- 59
2018-04-21 16:00:00 23.9 6 Sur 22 Sur 0.2 -- -- 44
2018-04-21 15:00:00 23.4 8 Sur 22 Sudeste 0.2 -- -- 46
2018-04-21 14:00:00 22.3 10 Sudeste 18 Sudeste 0 -- -- 48
2018-04-21 13:00:00 21.7 8 Este 24 Este 0.2 -- -- 50
2018-04-21 12:00:00 20.1 14 Este 31 Este 0 -- -- 53
2018-04-21 11:00:00 18.4 16 Este 28 Este 0.2 -- -- 55
2018-04-21 10:00:00 17.3 17 Este 30 Este 0 -- -- 57
2018-04-21 09:00:00 16.3 17 Este 28 Este 0.2 -- -- 59
2018-04-21 08:00:00 12.3 5 Norte 22 Este 0 -- -- 74
2018-04-21 07:00:00 12.5 4 Noroeste 15 Sudeste 0.2 -- -- 73
2018-04-21 06:00:00 16.1 9 Este 22 Nordeste 0 -- -- 58
2018-04-21 05:00:00 16.3 10 Este 25 Este 0.2 -- -- 58
2018-04-21 04:00:00 16 13 Este 22 Este 0 -- -- 61
2018-04-21 03:00:00 15.7 10 Este 19 Este 0.2 -- -- 66
2018-04-21 02:00:00 13.7 5 Noroeste 7 Noroeste 0.2 -- -- 76
2018-04-21 01:00:00 14.8 2 Noroeste 10 Nordeste 0 -- -- 72
2018-04-21 00:00:00 16.6 4 Noroeste 12 Nordeste 0.2 -- -- 67
2018-04-20 23:00:00 18.2 3 Norte 13 Este 0.2 -- -- 61
2018-04-20 22:00:00 19.7 12 Sudeste 25 Este 0.2 -- -- 57
2018-04-20 21:00:00 20.7 10 Este 18 Nordeste 0.2 -- -- 54
2018-04-20 20:00:00 22.3 7 Nordeste 24 Este 0 -- -- 48
2018-04-20 19:00:00 24.3 8 Sudeste 24 Sudoeste 0.2 -- -- 42
2018-04-20 18:00:00 25 15 Sudeste 27 Sudeste 0.4 -- -- 39
2018-04-20 17:00:00 26.1 14 Sudeste 27 Sudeste 0.2 -- -- 34
2018-04-20 16:00:00 25.8 8 Nordeste 25 Este 0.2 -- -- 37
2018-04-20 15:00:00 25.3 15 Este 32 Sudeste 0.2 -- -- 36
2018-04-20 14:00:00 24.8 13 Este 33 Sudeste 0.2 -- -- 38
2018-04-20 13:00:00 24 18 Sudeste 33 Este 0.2 -- -- 38
2018-04-20 12:00:00 22.6 12 Este 31 Este 0.4 -- -- 41
2018-04-20 11:00:00 19.6 12 Este 24 Este 0.2 -- -- 55
2018-04-20 10:00:00 18.3 14 Este 30 Nordeste 0.2 -- -- 58
2018-04-20 09:00:00 16.9 15 Este 31 Este 0.2 -- -- 61
2018-04-20 08:00:00 15.9 15 Este 30 Nordeste 0.2 -- -- 64
2018-04-20 07:00:00 16.5 18 Este 32 Este 0.2 -- -- 63
2018-04-20 06:00:00 16.6 17 Este 43 Este 0.2 -- -- 66
2018-04-20 05:00:00 16.7 25 Este 34 Este 0.2 -- -- 65
2018-04-20 04:00:00 16.3 21 Este 36 Este 0.2 -- -- 65
2018-04-20 03:00:00 16.2 23 Este 40 Este 0.2 -- -- 66
2018-04-20 02:00:00 16.7 26 Este 41 Este 0.4 -- -- 63
2018-04-20 01:00:00 16.8 27 Este 46 Este 0.2 -- -- 63
2018-04-20 00:00:00 16.5 24 Este 38 Este 0.2 -- -- 64
2018-04-19 23:00:00 17.2 18 Este 34 Este 0.4 -- -- 68
2018-04-19 22:00:00 17.3 7 Este 18 Este 0.2 -- -- 73
2018-04-19 21:00:00 17.3 3 Nordeste 18 Sudeste 0.4 -- -- 79
2018-04-19 20:00:00 19.8 10 Norte 30 Noroeste 0.4 -- -- 65
2018-04-19 19:00:00 21.5 12 Noroeste 24 Noroeste 0.4 -- -- 63
2018-04-19 18:00:00 21.7 13 Noroeste 22 Oeste 0.6 -- -- 59
2018-04-19 17:00:00 21.5 14 Noroeste 20 Noroeste 0.4 -- -- 59
2018-04-19 16:00:00 23.2 17 Noroeste 27 Noroeste 0.6 -- -- 49
2018-04-19 15:00:00 23.5 9 Oeste 18 Sudoeste 0.6 -- -- 48
2018-04-19 14:00:00 22.7 8 Sudoeste 18 Sudoeste 0.4 -- -- 50
2018-04-19 13:00:00 21.9 10 Sudoeste 18 Sudoeste 0.6 -- -- 56
2018-04-19 12:00:00 19.6 7 Sudoeste 12 Sudoeste 0.4 -- -- 58
2018-04-19 11:00:00 17.2 6 Sudoeste 10 Sudoeste 0.4 -- -- 64
2018-04-19 10:00:00 13 0 Calma 3 Sudeste 0.2 -- -- 80
2018-04-19 09:00:00 10.4 0 Calma 6 Norte 0.4 -- -- 86
2018-04-19 08:00:00 8.6 4 Norte 10 Norte 0.4 -- -- 91
2018-04-19 07:00:00 9.8 5 Noroeste 10 Norte 0.4 -- -- 86
2018-04-19 06:00:00 9 5 Norte 15 Nordeste 0.2 -- -- 86
2018-04-19 05:00:00 9.4 8 Nordeste 16 Este 0.4 -- -- 87
2018-04-19 04:00:00 7.9 7 Norte 11 Norte 0.4 -- -- 89
2018-04-19 03:00:00 8.7 5 Norte 11 Nordeste 0.4 -- -- 87
2018-04-19 02:00:00 9.4 5 Norte 12 Nordeste 0.2 -- -- 83
2018-04-19 01:00:00 9.5 5 Norte 12 Norte 0.4 -- -- 85
2018-04-19 00:00:00 10.1 4 Norte 10 Nordeste 0.4 -- -- 84
2018-04-18 23:00:00 11.9 2 Noroeste 4 Noroeste 0.4 -- -- 77
2018-04-18 22:00:00 14.7 0 Calma 8 Sudoeste 0.6 -- -- 67
2018-04-18 21:00:00 17.7 4 Sudoeste 14 Sudoeste 0.4 -- -- 51
2018-04-18 20:00:00 19.2 6 Sudoeste 21 Sudoeste 0.6 -- -- 44
2018-04-18 19:00:00 20.8 12 Sudoeste 23 Sudoeste 0.6 -- -- 49
2018-04-18 18:00:00 21.7 13 Oeste 34 Oeste 0.6 -- -- 48
2018-04-18 17:00:00 22.9 14 Oeste 30 Oeste 0.8 -- -- 45
2018-04-18 16:00:00 24.1 10 Sudoeste 34 Sudoeste 0.6 -- -- 41
2018-04-18 15:00:00 23.3 13 Sur 35 Sudoeste 0.6 -- -- 43
2018-04-18 14:00:00 22.5 15 Sudoeste 34 Sur 0.6 -- -- 44
2018-04-18 13:00:00 21.5 18 Sur 40 Sudoeste 0.6 -- -- 42
2018-04-18 12:00:00 20.6 13 Sur 31 Sur 0.4 -- -- 47
2018-04-18 11:00:00 18.3 12 Sudoeste 23 Sudoeste 0.2 -- -- 57
2018-04-18 10:00:00 11.8 4 Noroeste 9 Noroeste 0.2 -- -- 94
2018-04-18 09:00:00 7 5 Noroeste 9 Noroeste 0.2 -- -- 99
2018-04-18 08:00:00 5.4 4 Norte 8 Noroeste 0.2 -- -- 99
2018-04-18 07:00:00 5.3 2 Noroeste 8 Noroeste 0.2 -- -- 99
2018-04-18 06:00:00 5.5 0 Calma 9 Noroeste 0.2 -- -- 98
2018-04-18 05:00:00 5.7 0 Calma 8 Noroeste 0.4 -- -- 98
2018-04-18 04:00:00 5.9 4 Noroeste 7 Noroeste 0.2 -- -- 97
2018-04-18 03:00:00 6.4 4 Noroeste 7 Norte 0.2 -- -- 96
2018-04-18 02:00:00 7.2 4 Noroeste 8 Norte 0.2 -- -- 97
2018-04-18 01:00:00 7.7 4 Noroeste 8 Noroeste 0.2 -- -- 96
2018-04-18 00:00:00 9.2 3 Noroeste 9 Norte 0.4 -- -- 92
2018-04-17 23:00:00 10.5 4 Noroeste 8 Este 0.2 -- -- 91
2018-04-17 22:00:00 12.8 2 Sudeste 12 Oeste 0.4 -- -- 85
2018-04-17 21:00:00 15.6 5 Sudoeste 14 Sudoeste 0.4 -- -- 74
2018-04-17 20:00:00 16.6 9 Oeste 23 Oeste 0.4 -- -- 72
2018-04-17 19:00:00 17.8 14 Oeste 26 Oeste 0.4 -- -- 66
2018-04-17 18:00:00 17.9 14 Oeste 25 Oeste 0.4 -- -- 65
2018-04-17 17:00:00 19.8 13 Sudoeste 37 Sudoeste 0.2 -- -- 55
2018-04-17 16:00:00 19.4 10 Sur 33 Sur 0.4 -- -- 58
2018-04-17 15:00:00 19 15 Sur 48 Sudeste 0.2 -- -- 58
2018-04-17 14:00:00 18.5 17 Sudoeste 31 Sudoeste 0.2 -- -- 59
2018-04-17 13:00:00 17.6 12 Sur 28 Sudoeste 0.2 -- -- 62
2018-04-17 12:00:00 16.1 8 Sudoeste 22 Sudeste 0.2 -- -- 64
2018-04-17 11:00:00 14 8 Sur 24 Sur 0.2 -- -- 68
2018-04-17 10:00:00 12.4 9 Sur 18 Sur 0.2 -- -- 70
2018-04-17 09:00:00 11.3 6 Sur 22 Sur 0.4 -- -- 72
2018-04-17 08:00:00 10.8 3 Sudoeste 13 Sudoeste 0.2 -- -- 75
2018-04-17 07:00:00 10.7 4 Noroeste 19 Sur 0.4 -- -- 73
2018-04-17 06:00:00 10.6 7 Sur 24 Sudeste 0.2 -- -- 73
2018-04-17 05:00:00 10.4 9 Sur 23 Sur 0.4 -- -- 73
2018-04-17 04:00:00 9.8 3 Noroeste 8 Sudoeste 0.2 -- -- 81
2018-04-17 03:00:00 9.7 4 Sudoeste 14 Sur 0.2 -- -- 80
2018-04-17 02:00:00 9.3 6 Sudoeste 20 Sudoeste 0.4 -- -- 81
2018-04-17 01:00:00 9.6 10 Sudoeste 23 Sudoeste 0.2 -- -- 77
2018-04-17 00:00:00 9.7 9 Sudoeste 20 Sudoeste 0.2 -- -- 73
2018-04-16 23:00:00 10.1 9 Sudoeste 21 Sur 0.2 -- -- 69
2018-04-16 22:00:00 10.6 7 Sur 27 Sudoeste 0.4 -- -- 71
2018-04-16 21:00:00 12.4 12 Sudoeste 32 Sudoeste 0.2 -- -- 64
2018-04-16 20:00:00 14.2 13 Sudoeste 32 Sudoeste 0.4 -- -- 60
2018-04-16 19:00:00 15.2 12 Sudoeste 39 Oeste 0.2 -- -- 56
2018-04-16 18:00:00 15.4 18 Sudoeste 39 Sudoeste 0.4 -- -- 54
2018-04-16 17:00:00 15.2 17 Sudoeste 38 Sudoeste 0.2 -- -- 56
2018-04-16 16:00:00 15.6 13 Sudoeste 36 Sudoeste 0.2 -- -- 60
2018-04-16 15:00:00 14.6 18 Sudoeste 42 Sudoeste 0.4 -- -- 62
2018-04-16 14:00:00 13 15 Sudoeste 34 Sudoeste 0.2 -- -- 69
2018-04-16 13:00:00 12.3 15 Sudoeste 29 Sudoeste 0.2 -- -- 72
2018-04-16 12:00:00 11.4 14 Sudoeste 33 Sur 0 -- -- 76
2018-04-16 11:00:00 10.6 11 Sur 26 Sudoeste 0.2 -- -- 85
2018-04-16 10:00:00 8.5 6 Sur 16 Sur 0.2 -- -- 100
2018-04-16 09:00:00 6.4 3 Sur 10 Sudoeste 0.2 -- -- 100
2018-04-16 08:00:00 5.2 0 Calma 6 Sudeste 0.2 -- -- 100
2018-04-16 07:00:00 5.6 0 Calma 8 Noroeste 0.2 -- -- 100
2018-04-16 06:00:00 4.9 0 Calma 5 Noroeste 0.2 -- -- 100
2018-04-16 05:00:00 5 3 Noroeste 6 Noroeste 0.2 -- -- 100
2018-04-16 04:00:00 5.2 0 Calma 6 Noroeste 0.2 -- -- 99
2018-04-16 03:00:00 5.5 0 Calma 5 Noroeste 0.2 -- -- 100
2018-04-16 02:00:00 5.8 0 Calma 3 Noroeste 0.2 -- -- 99
2018-04-16 01:00:00 6.1 2 Noroeste 5 Este 0.2 -- -- 98
2018-04-16 00:00:00 6.3 0 Calma 3 Sur 0.2 -- -- 97
2018-04-15 23:00:00 7.4 0 Calma 12 Sudoeste 0.4 -- -- 95
2018-04-15 22:00:00 8 0 Calma 22 Sudoeste 0.2 -- -- 94
2018-04-15 21:00:00 9.2 11 Sudoeste 20 Oeste 0.4 -- -- 91
2018-04-15 20:00:00 9.8 8 Oeste 25 Sudoeste 0.2 -- -- 86
2018-04-15 19:00:00 10.1 11 Oeste 26 Oeste 0.2 -- -- 84
2018-04-15 18:00:00 9.4 7 Sudoeste 29 Oeste 0.4 -- -- 92
2018-04-15 17:00:00 10.5 11 Oeste 26 Sudoeste 0.2 -- -- 84
2018-04-15 16:00:00 11.2 10 Oeste 24 Oeste 0.2 -- -- 80
2018-04-15 15:00:00 10.7 2 Oeste 19 Noroeste 0.4 -- -- 87
2018-04-15 14:00:00 10.1 9 Oeste 27 Sudoeste 0.2 -- -- 89
2018-04-15 13:00:00 11.2 12 Oeste 23 Oeste 0.2 -- -- 79
2018-04-15 12:00:00 10.2 9 Oeste 24 Oeste 0.4 -- -- 92
2018-04-15 11:00:00 10.3 9 Sudoeste 21 Oeste 0.2 -- -- 89
2018-04-15 10:00:00 9.9 6 Sudoeste 13 Sudoeste 0.2 -- -- 95
2018-04-15 09:00:00 9.1 8 Oeste 19 Oeste 0.2 -- -- 98
2018-04-15 08:00:00 9.1 10 Sudoeste 21 Sudoeste 0.4 -- -- 99
2018-04-15 07:00:00 9.2 9 Sudoeste 20 Sudoeste 0.2 -- -- 99
2018-04-15 06:00:00 9.4 9 Sudoeste 23 Sudoeste 0.2 -- -- 100
2018-04-15 05:00:00 9.2 10 Sudoeste 29 Sudoeste 0.2 -- -- 100
2018-04-15 04:00:00 8.9 13 Sur 26 Sur 0.2 -- -- 99
2018-04-15 03:00:00 8.8 3 Sudoeste 17 Sur 0.4 -- -- 99
2018-04-15 02:00:00 8.6 5 Sudoeste 22 Sudoeste 0.2 -- -- 98
2018-04-15 01:00:00 8.5 9 Sur 22 Sudoeste 0.2 -- -- 98
2018-04-15 00:00:00 8.5 8 Sur 27 Sudoeste 0.2 -- -- 96
2018-04-14 23:00:00 8.7 8 Sur 29 Sur 0.4 -- -- 92
2018-04-14 22:00:00 8.7 5 Sur 24 Sudoeste 0.2 -- -- 92
2018-04-14 21:00:00 9.6 9 Sudoeste 23 Sudoeste 0.4 -- -- 90
2018-04-14 20:00:00 11 11 Sudoeste 27 Sudoeste 0.4 -- -- 82
2018-04-14 19:00:00 11.9 17 Oeste 32 Oeste 0.4 -- -- 79
2018-04-14 18:00:00 14.6 14 Oeste 30 Sudoeste 0.4 -- -- 71
2018-04-14 17:00:00 14.4 12 Sudoeste 30 Sudoeste 0.6 -- -- 71
2018-04-14 16:00:00 13.6 10 Oeste 21 Oeste 0.4 -- -- 76
2018-04-14 15:00:00 13.6 10 Oeste 26 Sur 0.2 -- -- 74
2018-04-14 14:00:00 12.7 9 Sudoeste 23 Sudeste 0.4 -- -- 74
2018-04-14 13:00:00 11.5 9 Sur 22 Sudoeste 0.4 -- -- 79
2018-04-14 12:00:00 10.6 8 Sudoeste 21 Sudoeste 0.2 -- -- 90
2018-04-14 11:00:00 9.5 5 Sudoeste 15 Sudoeste 0.2 -- -- 98
2018-04-14 10:00:00 6.5 2 Noroeste 5 Noroeste 0 -- -- 100
2018-04-14 09:00:00 3.3 2 Noroeste 8 Noroeste 0.2 -- -- 100
2018-04-14 08:00:00 2.6 0 Calma 9 Norte 0.2 -- -- 100
2018-04-14 07:00:00 2.9 4 Norte 6 Norte 0.2 -- -- 100
2018-04-14 06:00:00 3.8 2 Norte 7 Norte 0.2 -- -- 100
2018-04-14 05:00:00 4.8 3 Norte 6 Norte 0.2 -- -- 100
2018-04-14 04:00:00 5.7 0 Calma 3 Este 0.2 -- -- 100
2018-04-14 03:00:00 6 0 Calma 8 Norte 0.2 -- -- 99
2018-04-14 02:00:00 5.7 3 Norte 5 Nordeste 0.2 -- -- 99
2018-04-14 01:00:00 5.3 0 Calma 8 Noroeste 0.2 -- -- 98
2018-04-14 00:00:00 5.9 2 Norte 8 Sudeste 0.4 -- -- 96
2018-04-13 23:00:00 7.4 0 Calma 6 Nordeste 0.2 -- -- 94
2018-04-13 22:00:00 9.2 3 Nordeste 9 Nordeste 0.4 -- -- 90
2018-04-13 21:00:00 10.5 3 Norte 9 Norte 0.4 -- -- 90
2018-04-13 20:00:00 10.7 2 Norte 11 Noroeste 0.4 -- -- 92
2018-04-13 19:00:00 10.5 0 Calma 22 Norte 0.2 -- -- 90
2018-04-13 18:00:00 11.7 5 Noroeste 13 Noroeste 0.4 -- -- 87
2018-04-13 17:00:00 11.6 5 Noroeste 13 Noroeste 0.4 -- -- 89
2018-04-13 16:00:00 10.8 2 Nordeste 17 Noroeste 0.2 -- -- 95
2018-04-13 15:00:00 12 5 Noroeste 17 Noroeste 0.2 -- -- 82
2018-04-13 14:00:00 12.1 4 Norte 13 Noroeste 0.4 -- -- 81
2018-04-13 13:00:00 11.1 5 Noroeste 12 Norte 0.2 -- -- 86
2018-04-13 12:00:00 10.4 7 Noroeste 10 Noroeste 0.2 -- -- 89
2018-04-13 11:00:00 9.6 2 Noroeste 5 Oeste 0.2 -- -- 97
2018-04-13 10:00:00 7.7 0 Calma 4 Noroeste 0.2 -- -- 100
2018-04-13 09:00:00 6.4 3 Noroeste 5 Noroeste 0.2 -- -- 100
2018-04-13 08:00:00 6 0 Calma 5 Noroeste 0.2 -- -- 100
2018-04-13 07:00:00 5.8 0 Calma 4 Noroeste 0.4 -- -- 100
2018-04-13 06:00:00 5.7 3 Noroeste 8 Norte 0.2 -- -- 100
2018-04-13 05:00:00 5.3 0 Calma 5 Nordeste 0.2 -- -- 100
2018-04-13 04:00:00 5.3 0 Calma 9 Nordeste 0.2 -- -- 99
2018-04-13 03:00:00 4.8 5 Nordeste 11 Nordeste 0.2 -- -- 100
2018-04-13 02:00:00 5.3 5 Nordeste 9 Norte 0.2 -- -- 100
2018-04-13 01:00:00 5.8 4 Norte 6 Noroeste 0.2 -- -- 98
2018-04-13 00:00:00 7.1 0 Calma 4 Oeste 0.4 -- -- 97
2018-04-12 23:00:00 7.8 3 Este 8 Nordeste 0.2 -- -- 97
2018-04-12 22:00:00 8.2 3 Norte 7 Nordeste 0.4 -- -- 96
2018-04-12 21:00:00 8.8 0 Calma 5 Sudoeste 0.2 -- -- 95
2018-04-12 20:00:00 9.4 2 Nordeste 8 Oeste 0.4 -- -- 94
2018-04-12 19:00:00 10.2 2 Sudoeste 12 Sudoeste 0.4 -- -- 87
2018-04-12 18:00:00 11.1 5 Sur 13 Sudoeste 0.6 -- -- 80
2018-04-12 17:00:00 11.4 2 Este 21 Sudeste 0.4 -- -- 76
2018-04-12 16:00:00 11.4 9 Sudeste 26 Sur 0.4 -- -- 75
2018-04-12 15:00:00 12.5 14 Sudeste 34 Sudeste 0.4 -- -- 69
2018-04-12 14:00:00 11.3 11 Sudeste 25 Sur 0.4 -- -- 78
2018-04-12 13:00:00 10 6 Sudeste 16 Sur 0.2 -- -- 91
2018-04-12 12:00:00 9 8 Sur 28 Sudeste 0.2 -- -- 90
2018-04-12 11:00:00 8.6 17 Sudeste 32 Sur 0.2 -- -- 90
2018-04-12 10:00:00 7.8 6 Sur 22 Sur 0.2 -- -- 99
2018-04-12 09:00:00 7.5 4 Sudeste 15 Sur 0.2 -- -- 99
2018-04-12 08:00:00 7.6 6 Sur 17 Sudoeste 0.2 -- -- 100
2018-04-12 07:00:00 7.8 6 Sudoeste 15 Sudoeste 0.2 -- -- 100
2018-04-12 06:00:00 7.9 6 Sur 17 Sudoeste 0 -- -- 100
2018-04-12 05:00:00 7.9 4 Sur 18 Sur 0.2 -- -- 100
2018-04-12 04:00:00 8 5 Sur 12 Sur 0.2 -- -- 99
2018-04-12 03:00:00 7.9 5 Sur 13 Sur 0.2 -- -- 99
2018-04-12 02:00:00 7.9 3 Sur 10 Sur 0.2 -- -- 99
2018-04-12 01:00:00 7.9 0 Calma 4 Sur 0.2 -- -- 99
2018-04-12 00:00:00 7.9 0 Calma 3 Sudoeste 0.2 -- -- 98
2018-04-11 23:00:00 8 0 Calma 5 Sudoeste 0 -- -- 97
2018-04-11 22:00:00 8.5 5 Sudoeste 17 Oeste 0.2 -- -- 96
2018-04-11 21:00:00 9 4 Sudoeste 14 Sur 0.2 -- -- 96
2018-04-11 20:00:00 9.1 2 Sudoeste 10 Sudoeste 0.2 -- -- 95
2018-04-11 19:00:00 9 3 Sur 8 Sur 0.2 -- -- 93
2018-04-11 18:00:00 8.7 3 Sudoeste 18 Oeste 0.2 -- -- 92
2018-04-11 17:00:00 9.4 5 Oeste 15 Oeste 0.2 -- -- 92
2018-04-11 16:00:00 8.8 8 Oeste 17 Sudoeste 0.2 -- -- 94
2018-04-11 15:00:00 8.9 8 Oeste 18 Noroeste 0.2 -- -- 87
2018-04-11 14:00:00 9.3 6 Sudoeste 16 Oeste 0.2 -- -- 84
2018-04-11 13:00:00 8.8 9 Noroeste 20 Noroeste 0 -- -- 80
2018-04-11 12:00:00 8.4 7 Noroeste 21 Oeste 0.2 -- -- 84
2018-04-11 11:00:00 7.7 9 Noroeste 15 Noroeste 0.2 -- -- 89
2018-04-11 10:00:00 4.5 0 Calma 5 Noroeste 0 -- -- 100
2018-04-11 09:00:00 0.8 0 Calma 6 Noroeste 0.2 -- -- 100
2018-04-11 08:00:00 0.3 0 Calma 4 Norte 0.2 -- -- 98
2018-04-11 07:00:00 1.2 0 Calma 7 Nordeste 0 -- -- 97
2018-04-11 06:00:00 2.8 5 Nordeste 8 Nordeste 0.2 -- -- 97
2018-04-11 05:00:00 3.3 4 Nordeste 12 Nordeste 0 -- -- 95
2018-04-11 04:00:00 3.3 4 Norte 8 Norte 0.2 -- -- 97
2018-04-11 03:00:00 3.5 3 Norte 13 Este 0.2 -- -- 95
2018-04-11 02:00:00 2.7 4 Norte 11 Norte 0.2 -- -- 97
2018-04-11 01:00:00 2.9 3 Norte 12 Nordeste 0 -- -- 93
2018-04-11 00:00:00 3.1 2 Nordeste 4 Oeste 0.2 -- -- 94
2018-04-10 23:00:00 3.9 0 Calma 6 Noroeste 0.2 -- -- 94
2018-04-10 22:00:00 4.8 3 Norte 11 Norte 0.2 -- -- 90
2018-04-10 21:00:00 5.2 3 Norte 20 Noroeste 0 -- -- 88
2018-04-10 20:00:00 6.6 0 Calma 8 Este 0.2 -- -- 90
2018-04-10 19:00:00 5.7 5 Este 12 Noroeste 0.4 -- -- 92
2018-04-10 18:00:00 5.4 7 Noroeste 26 Noroeste 0.2 -- -- 93
2018-04-10 17:00:00 8.1 4 Sudoeste 17 Sudoeste 0.2 -- -- 82
2018-04-10 16:00:00 6.6 2 Sudeste 11 Este 0.2 -- -- 87
2018-04-10 15:00:00 4.6 5 Este 35 Norte 0.4 -- -- 97
2018-04-10 14:00:00 6.9 14 Oeste 29 Noroeste 0.2 -- -- 80
2018-04-10 13:00:00 7.6 10 Noroeste 23 Noroeste 0.4 -- -- 79
2018-04-10 12:00:00 6 9 Noroeste 22 Noroeste 0.2 -- -- 88
2018-04-10 11:00:00 4.8 10 Oeste 22 Oeste 0.4 -- -- 95
2018-04-10 10:00:00 6.1 3 Oeste 10 Sudoeste 0.2 -- -- 97
2018-04-10 09:00:00 5.5 4 Sudoeste 12 Oeste 0.2 -- -- 99
2018-04-10 08:00:00 5.2 4 Sudoeste 7 Oeste 0.4 -- -- 98
2018-04-10 07:00:00 5.3 3 Oeste 13 Oeste 0.4 -- -- 96
2018-04-10 06:00:00 5.5 4 Oeste 34 Noroeste 0.2 -- -- 96
2018-04-10 05:00:00 6.9 21 Noroeste 43 Sudoeste 0.4 -- -- 95
2018-04-10 04:00:00 7 19 Sudoeste 44 Sudoeste 0.2 -- -- 99
2018-04-10 03:00:00 6.3 13 Sur 31 Sudoeste 0.2 -- -- 97
2018-04-10 02:00:00 7.1 19 Sudoeste 40 Sudoeste 0.2 -- -- 95
2018-04-10 01:00:00 7.8 10 Oeste 22 Sudoeste 0.2 -- -- 95
2018-04-10 00:00:00 8.2 7 Sudoeste 23 Sudoeste 0.4 -- -- 92
2018-04-09 23:00:00 8.5 6 Sudoeste 27 Oeste 0.2 -- -- 93
2018-04-09 22:00:00 8.9 12 Noroeste 26 Noroeste 0.2 -- -- 92
2018-04-09 21:00:00 9.5 4 Sudoeste 21 Oeste 0.4 -- -- 93
2018-04-09 20:00:00 10 9 Oeste 19 Sudoeste 0.2 -- -- 93
2018-04-09 19:00:00 9.1 2 Este 19 Noroeste 0.2 -- -- 94
2018-04-09 18:00:00 10.4 12 Noroeste 26 Oeste 0.4 -- -- 91
2018-04-09 17:00:00 11.4 12 Oeste 28 Oeste 0.2 -- -- 84
2018-04-09 16:00:00 12.9 10 Noroeste 26 Noroeste 0.2 -- -- 72
2018-04-09 15:00:00 12.7 4 Oeste 16 Este 0 -- -- 74
2018-04-09 14:00:00 10.1 8 Norte 21 Norte 0.2 -- -- 86
2018-04-09 13:00:00 9.4 9 Noroeste 21 Norte 0.2 -- -- 93
2018-04-09 12:00:00 8.9 9 Noroeste 19 Noroeste 0 -- -- 99
2018-04-09 11:00:00 7.8 8 Noroeste 17 Noroeste 0.2 -- -- 99
2018-04-09 10:00:00 6.2 2 Sur 6 Sur 0 -- -- 100
2018-04-09 09:00:00 5 0 Calma 4 Sudoeste 0.2 -- -- 100
2018-04-09 08:00:00 4.8 0 Calma 2 Noroeste 0.2 -- -- 100
2018-04-09 07:00:00 4.5 0 Calma 3 Noroeste 0 -- -- 100
2018-04-09 06:00:00 4.4 0 Calma 3 Sudeste 0.2 -- -- 100
2018-04-09 05:00:00 4.1 0 Calma 2 Este 0 -- -- 99
2018-04-09 04:00:00 4.2 0 Calma 2 Sudeste 0.2 -- -- 99
2018-04-09 03:00:00 4.2 0 Calma 6 Este 0.2 -- -- 98
2018-04-09 02:00:00 4.6 0 Calma 3 Norte 0 -- -- 99
2018-04-09 01:00:00 4.6 0 Calma 7 Noroeste 0 -- -- 99
2018-04-09 00:00:00 4.8 3 Norte 5 Norte 0 -- -- 98
2018-04-08 23:00:00 4.8 2 Este 5 Este 0.2 -- -- 97
2018-04-08 22:00:00 5.3 2 Sur 7 Sudoeste 0 -- -- 97
2018-04-08 21:00:00 5.7 5 Oeste 10 Oeste 0.2 -- -- 96
2018-04-08 20:00:00 6.1 0 Calma 6 Sudeste 0.2 -- -- 95
2018-04-08 19:00:00 6.5 2 Sudeste 23 Noroeste 0 -- -- 94
2018-04-08 18:00:00 7.7 14 Oeste 32 Sudoeste 0.2 -- -- 94
2018-04-08 17:00:00 8.9 12 Sudoeste 33 Oeste 0 -- -- 93
2018-04-08 16:00:00 9.5 10 Oeste 30 Oeste 0.2 -- -- 91
2018-04-08 15:00:00 10.6 15 Oeste 32 Oeste 0.2 -- -- 86
2018-04-08 14:00:00 10.1 10 Sudoeste 33 Sudoeste 0.2 -- -- 92
2018-04-08 13:00:00 9.1 12 Oeste 30 Noroeste 0 -- -- 94
2018-04-08 12:00:00 10 6 Sudoeste 19 Oeste 0.2 -- -- 95
2018-04-08 11:00:00 9 7 Oeste 20 Oeste 0 -- -- 98
2018-04-08 10:00:00 8.7 8 Oeste 19 Sudoeste 0.2 -- -- 99
2018-04-08 09:00:00 8.5 9 Oeste 22 Noroeste 0.2 -- -- 99
2018-04-08 08:00:00 8.5 5 Oeste 27 Sudoeste 0 -- -- 99
2018-04-08 07:00:00 8.5 8 Sudoeste 19 Sudoeste 0.2 -- -- 100
2018-04-08 06:00:00 8.3 5 Oeste 18 Oeste 0.2 -- -- 99
2018-04-08 05:00:00 8 4 Sur 12 Sudoeste 0 -- -- 99
2018-04-08 04:00:00 7.9 4 Oeste 17 Sur 0.2 -- -- 99
2018-04-08 03:00:00 7.8 7 Sur 16 Sur 0.2 -- -- 98
2018-04-08 02:00:00 7.8 6 Sur 15 Sudoeste 0 -- -- 98
2018-04-08 01:00:00 7.9 3 Sur 14 Sur 0.2 -- -- 97
2018-04-08 00:00:00 8.2 5 Sur 11 Sur 0.2 -- -- 96
2018-04-07 23:00:00 8.5 4 Sudoeste 11 Sur 0 -- -- 95
2018-04-07 22:00:00 8.6 5 Sur 12 Sudoeste 0.2 -- -- 93
2018-04-07 21:00:00 8.9 3 Sudoeste 18 Sudeste 0 -- -- 88
2018-04-07 20:00:00 10.2 6 Sur 15 Sudeste 0.2 -- -- 86
2018-04-07 19:00:00 8.8 4 Sur 22 Este 0.2 -- -- 88
2018-04-07 18:00:00 8.9 7 Sur 23 Nordeste 0.2 -- -- 88
2018-04-07 17:00:00 9.2 13 Sudoeste 36 Oeste 0.2 -- -- 84
2018-04-07 16:00:00 11.5 13 Sudoeste 28 Sudoeste 0 -- -- 81
2018-04-07 15:00:00 10 10 Sur 29 Sur 0.2 -- -- 89
2018-04-07 14:00:00 12.3 12 Sur 29 Sudoeste 0.2 -- -- 77
2018-04-07 13:00:00 11.4 12 Sur 30 Sudoeste 0.2 -- -- 79
2018-04-07 12:00:00 10.1 10 Sur 30 Sur 0.2 -- -- 86
2018-04-07 11:00:00 9.1 10 Sur 32 Sudoeste 0.2 -- -- 93
2018-04-07 10:00:00 8 7 Sur 20 Sur 0.4 -- -- 97
2018-04-07 09:00:00 7.2 9 Sur 22 Sudoeste 0.2 -- -- 97
2018-04-07 08:00:00 7.2 8 Sur 22 Sur 0.2 -- -- 95
2018-04-07 07:00:00 7.5 8 Sur 23 Sudoeste 0.2 -- -- 94
2018-04-07 06:00:00 7.4 8 Sur 19 Sur 0.2 -- -- 95
2018-04-07 05:00:00 7.7 8 Sur 31 Sur 0.2 -- -- 92
2018-04-07 04:00:00 7.4 10 Sur 23 Sur 0.4 -- -- 92
2018-04-07 03:00:00 7.1 12 Sur 28 Sur 0.2 -- -- 93
2018-04-07 02:00:00 7 13 Sur 28 Sur 0.2 -- -- 91
2018-04-07 01:00:00 6.8 6 Sur 17 Sudeste 0.4 -- -- 93
2018-04-07 00:00:00 6.8 6 Sur 27 Sudeste 0.2 -- -- 93
2018-04-06 23:00:00 6.7 10 Sur 28 Sudeste 0.2 -- -- 91
2018-04-06 22:00:00 6.5 4 Sur 17 Sudeste 0.4 -- -- 90
2018-04-06 21:00:00 6.8 7 Sudeste 19 Sur 0.2 -- -- 90
2018-04-06 20:00:00 6.6 2 Sudeste 15 Sudoeste 0.4 -- -- 96
2018-04-06 19:00:00 7.5 6 Sur 15 Sur 0.2 -- -- 95
2018-04-06 18:00:00 8.4 4 Sur 12 Sudoeste 0.2 -- -- 98
2018-04-06 17:00:00 8.4 4 Sudoeste 15 Sudoeste 0.4 -- -- 98
2018-04-06 16:00:00 9.3 4 Sudoeste 12 Oeste 0 -- -- 98
2018-04-06 15:00:00 9.3 3 Oeste 16 Oeste 0.2 -- -- 98
2018-04-06 14:00:00 9.4 5 Sur 18 Sudoeste 0.2 -- -- 98
2018-04-06 13:00:00 9.4 10 Oeste 23 Oeste 0.2 -- -- 97
2018-04-06 12:00:00 9.6 4 Sur 21 Sur 0 -- -- 97
2018-04-06 11:00:00 9.2 7 Sur 27 Sur 0.2 -- -- 96
2018-04-06 10:00:00 9.2 8 Sur 26 Sur 0.2 -- -- 95
2018-04-06 09:00:00 8.9 8 Sur 32 Sudeste 0 -- -- 96
2018-04-06 08:00:00 8.6 10 Sur 21 Sur 0.2 -- -- 96
2018-04-06 07:00:00 8.4 9 Sur 29 Sur 0.2 -- -- 95
2018-04-06 06:00:00 9 9 Sur 29 Sudoeste 0 -- -- 88
2018-04-06 05:00:00 10.2 11 Sur 32 Sur 0.2 -- -- 73
2018-04-06 04:00:00 9.9 10 Sur 24 Sur 0.2 -- -- 67
2018-04-06 03:00:00 9.5 10 Sur 26 Sur 0 -- -- 70
2018-04-06 02:00:00 9.4 8 Sur 19 Sudoeste 0.2 -- -- 71
2018-04-06 01:00:00 10.1 10 Sur 40 Sudeste 0.2 -- -- 67
2018-04-06 00:00:00 10.2 11 Sur 29 Sur 0.2 -- -- 79
2018-04-05 23:00:00 10.3 13 Sur 25 Sudoeste 0.2 -- -- 78
2018-04-05 22:00:00 11 2 Sur 20 Sur 0 -- -- 79
2018-04-05 21:00:00 12.8 8 Sur 24 Sudoeste 0.4 -- -- 71
2018-04-05 20:00:00 15.5 7 Oeste 31 Sudoeste 0.2 -- -- 59
2018-04-05 19:00:00 16.6 11 Sudoeste 31 Sur 0.4 -- -- 54
2018-04-05 18:00:00 16.5 17 Sudoeste 34 Sudoeste 0.2 -- -- 56
2018-04-05 17:00:00 15.9 16 Sur 36 Sur 0.2 -- -- 55
2018-04-05 16:00:00 14.5 18 Sur 39 Sur 0.2 -- -- 59
2018-04-05 15:00:00 14.4 17 Sur 34 Sudoeste 0.4 -- -- 57
2018-04-05 14:00:00 13.4 13 Sur 36 Sudeste 0.2 -- -- 63
2018-04-05 13:00:00 13 16 Sur 37 Sudoeste 0.2 -- -- 66
2018-04-05 12:00:00 11.6 12 Sur 37 Sur 0.2 -- -- 71
2018-04-05 11:00:00 10.2 9 Sur 24 Sudoeste 0.2 -- -- 81
2018-04-05 10:00:00 8.9 6 Sur 19 Sur 0.2 -- -- 95
2018-04-05 09:00:00 6 2 Sudeste 6 Sur 0.2 -- -- 100
2018-04-05 08:00:00 5.6 0 Calma 4 Noroeste 0.2 -- -- 98
2018-04-05 07:00:00 6.7 2 Oeste 12 Sur 0.2 -- -- 97
2018-04-05 06:00:00 7 5 Sudeste 10 Sur 0.2 -- -- 99
2018-04-05 05:00:00 7.1 3 Sur 10 Sur 0.2 -- -- 99
2018-04-05 04:00:00 7.5 3 Sur 8 Sudoeste 0.2 -- -- 100
2018-04-05 03:00:00 7.4 0 Calma 4 Sudeste 0.2 -- -- 100
2018-04-05 02:00:00 7.6 0 Calma 4 Norte 0.2 -- -- 99
2018-04-05 01:00:00 7.5 0 Calma 7 Sudoeste 0.2 -- -- 99
2018-04-05 00:00:00 7.6 0 Calma 4 Sur 0.2 -- -- 98
2018-04-04 23:00:00 8.2 0 Calma 10 Noroeste 0.2 -- -- 97
2018-04-04 22:00:00 9.1 6 Oeste 12 Oeste 0.2 -- -- 95
2018-04-04 21:00:00 9.8 6 Oeste 13 Oeste 0.2 -- -- 94
2018-04-04 20:00:00 10.3 7 Oeste 19 Sudoeste 0.2 -- -- 92
2018-04-04 19:00:00 10.4 14 Oeste 28 Oeste 0.2 -- -- 93
2018-04-04 18:00:00 10.1 15 Oeste 33 Sudoeste 0.2 -- -- 95
2018-04-04 17:00:00 11 15 Oeste 31 Oeste 0.2 -- -- 92
2018-04-04 16:00:00 10.4 13 Oeste 39 Oeste 0 -- -- 92
2018-04-04 15:00:00 11.1 16 Oeste 39 Oeste 0.2 -- -- 89
2018-04-04 14:00:00 10 16 Oeste 30 Oeste 0.2 -- -- 95
2018-04-04 13:00:00 9.4 15 Oeste 33 Sudoeste 0.2 -- -- 97
2018-04-04 12:00:00 9.2 12 Oeste 42 Sudoeste 0.2 -- -- 97
2018-04-04 11:00:00 9.1 10 Sudoeste 24 Sudoeste 0.2 -- -- 98
2018-04-04 10:00:00 8.8 12 Oeste 33 Oeste 0.2 -- -- 97
2018-04-04 09:00:00 8.8 12 Oeste 30 Oeste 0.2 -- -- 97
2018-04-04 08:00:00 8.1 18 Noroeste 42 Noroeste 0.2 -- -- 95
2018-04-04 07:00:00 8.8 19 Oeste 42 Oeste 0.2 -- -- 95
2018-04-04 06:00:00 9 13 Oeste 36 Oeste 0.2 -- -- 94
2018-04-04 05:00:00 8.8 12 Oeste 28 Oeste 0 -- -- 93
2018-04-04 04:00:00 8.7 12 Oeste 35 Sudoeste 0.2 -- -- 97
2018-04-04 03:00:00 8.3 15 Sudoeste 37 Sudoeste 0.2 -- -- 96
2018-04-04 02:00:00 8.2 14 Sur 30 Sudoeste 0.2 -- -- 94
2018-04-04 01:00:00 8 9 Sur 32 Sur 0 -- -- 94
2018-04-04 00:00:00 7 12 Sudoeste 27 Sudoeste 0.2 -- -- 97
2018-04-03 23:00:00 6.5 5 Sur 34 Oeste 0.2 -- -- 95
2018-04-03 22:00:00 7.1 15 Oeste 36 Oeste 0.2 -- -- 92
2018-04-03 21:00:00 8.5 9 Sudoeste 29 Oeste 0.2 -- -- 94
2018-04-03 20:00:00 8.5 12 Oeste 29 Oeste 0.2 -- -- 96
2018-04-03 19:00:00 7.9 9 Sudoeste 54 Oeste 0.2 -- -- 94
2018-04-03 18:00:00 10.3 27 Sudoeste 69 Sudoeste 0.2 -- -- 79
2018-04-03 17:00:00 11.6 21 Sudoeste 52 Sudoeste 0.2 -- -- 78
2018-04-03 16:00:00 11.6 21 Sudoeste 52 Sudoeste 0.2 -- -- 79
2018-04-03 15:00:00 10.4 18 Sudoeste 47 Sudoeste 0.2 -- -- 84
2018-04-03 14:00:00 11.1 16 Sudoeste 44 Sudoeste 0.2 -- -- 81
2018-04-03 13:00:00 11.1 17 Sudoeste 39 Sudoeste 0.2 -- -- 80
2018-04-03 12:00:00 10.3 13 Sudoeste 37 Sudoeste 0.2 -- -- 87
2018-04-03 11:00:00 10 15 Sudoeste 36 Sudoeste 0.2 -- -- 87
2018-04-03 10:00:00 9.3 14 Sudoeste 41 Sudoeste 0.4 -- -- 90
2018-04-03 09:00:00 8.3 10 Sur 24 Sur 0.2 -- -- 95
2018-04-03 08:00:00 8.3 9 Sur 18 Sur 0.4 -- -- 94
2018-04-03 07:00:00 8.1 5 Sudoeste 35 Sudoeste 0.2 -- -- 95
2018-04-03 06:00:00 8.4 15 Sudoeste 35 Sudeste 0.2 -- -- 96
2018-04-03 05:00:00 8.3 10 Sur 29 Sur 0.2 -- -- 95
2018-04-03 04:00:00 8.6 5 Sur 36 Sudoeste 0.4 -- -- 95
2018-04-03 03:00:00 9.3 15 Oeste 48 Sudoeste 0.2 -- -- 99
2018-04-03 02:00:00 9.8 14 Sudoeste 39 Sudoeste 0.2 -- -- 98
2018-04-03 01:00:00 10.1 13 Sur 28 Sudoeste 0.2 -- -- 98
2018-04-03 00:00:00 10.2 11 Sur 33 Sudoeste 0.2 -- -- 97
2018-04-02 23:00:00 10.3 14 Sudoeste 31 Sudoeste 0.4 -- -- 96
2018-04-02 22:00:00 10.5 14 Sudoeste 35 Sudoeste 0.2 -- -- 94
2018-04-02 21:00:00 10.7 13 Sudoeste 38 Sudoeste 0.2 -- -- 95
2018-04-02 20:00:00 11 19 Sudoeste 44 Sudoeste 0.4 -- -- 93
2018-04-02 19:00:00 11.3 17 Sudoeste 37 Sudoeste 0.2 -- -- 94
2018-04-02 18:00:00 11.4 17 Sudoeste 40 Sudoeste 0.4 -- -- 95
2018-04-02 17:00:00 11.4 15 Sudoeste 44 Sudoeste 0.4 -- -- 94
2018-04-02 16:00:00 12.3 17 Sudoeste 51 Sudoeste 0.4 -- -- 87
2018-04-02 15:00:00 12.9 18 Sudoeste 45 Sudoeste 0.4 -- -- 81
2018-04-02 14:00:00 12.2 14 Sudoeste 29 Sudoeste 0.4 -- -- 88
2018-04-02 13:00:00 11.6 17 Sudoeste 34 Sudoeste 0.4 -- -- 93
2018-04-02 12:00:00 11.1 14 Sudoeste 32 Sudoeste 0.4 -- -- 97
2018-04-02 11:00:00 10.8 7 Sur 23 Sudoeste 0.6 -- -- 99
2018-04-02 10:00:00 10 6 Sudoeste 15 Sudoeste 0.6 -- -- 99
2018-04-02 09:00:00 10 8 Sudoeste 22 Oeste 0.6 -- -- 99
2018-04-02 08:00:00 9.6 6 Sur 17 Sur 0.8 -- -- 98
2018-04-02 07:00:00 9.2 5 Sur 22 Sur 0.8 -- -- 98
2018-04-02 06:00:00 9.3 10 Sur 26 Sur 1.2 -- -- 97
2018-04-02 05:00:00 9.4 11 Sudoeste 24 Sudoeste 1 -- -- 95
2018-04-02 04:00:00 9.8 8 Sur 24 Sudoeste 0.4 -- -- 92
2018-04-02 03:00:00 10.7 8 Sur 24 Sur 0 -- -- 84
2018-04-02 02:00:00 11 6 Sur 28 Sudoeste 0 -- -- 74
2018-04-02 01:00:00 11.4 10 Sur 32 Sur 0 -- -- 66
2018-04-02 00:00:00 11.5 10 Sur 23 Sudoeste 0 -- -- 59
2018-04-01 23:00:00 11.9 9 Sudoeste 33 Sur 0 -- -- 66
2018-04-01 22:00:00 12.6 12 Sur 27 Sur 0 -- -- 66
2018-04-01 21:00:00 13.5 9 Sur 27 Sur 0 -- -- 65
2018-04-01 20:00:00 14 8 Sur 30 Sur 0 -- -- 62
2018-04-01 19:00:00 15 13 Sudoeste 34 Sudoeste 0 -- -- 60
2018-04-01 18:00:00 16.2 13 Sudoeste 35 Sudoeste 0 -- -- 52
2018-04-01 17:00:00 16.1 19 Sudoeste 40 Sudoeste 0 -- -- 50
2018-04-01 16:00:00 15 15 Sur 38 Sudoeste 0 -- -- 55
2018-04-01 15:00:00 13.9 17 Sur 35 Sur 0 -- -- 49
2018-04-01 14:00:00 14.4 21 Sur 42 Sur 0 -- -- 42
2018-04-01 13:00:00 13.4 14 Sur 41 Sudoeste 0 -- -- 47
2018-04-01 12:00:00 12.1 12 Sur 34 Sur 0 -- -- 51
2018-04-01 11:00:00 11.3 13 Sur 39 Sur 0 -- -- 58
2018-04-01 10:00:00 10.4 18 Sur 36 Sudeste 0 -- -- 56
2018-04-01 09:00:00 9.5 11 Sur 26 Sudeste 0 -- -- 54
2018-04-01 08:00:00 9.1 8 Sur 24 Sur 0 -- -- 64
2018-04-01 07:00:00 8.9 4 Sur 21 Sur 0 -- -- 72
2018-04-01 06:00:00 8.4 4 Sudeste 11 Este 0 -- -- 80
2018-04-01 05:00:00 8.5 5 Sudoeste 21 Sudoeste 0 -- -- 80
2018-04-01 04:00:00 8.4 7 Sur 20 Sur 0 -- -- 82
2018-04-01 03:00:00 8 7 Sur 18 Sur 0 -- -- 86
2018-04-01 02:00:00 7.6 4 Sudoeste 14 Sudeste 0 -- -- 89
2018-04-01 01:00:00 7.4 6 Sur 17 Sur 0 -- -- 89
2018-04-01 00:00:00 7.6 5 Sur 18 Sur 0 -- -- 84
2018-03-31 23:00:00 7.5 8 Sur 17 Sur 0 -- -- 82
2018-03-31 22:00:00 7.4 6 Sur 16 Sur 0 -- -- 84
2018-03-31 21:00:00 7.6 4 Sur 14 Sudoeste 0 -- -- 79
2018-03-31 20:00:00 8.6 6 Sur 26 Sudoeste 0 -- -- 68
2018-03-31 19:00:00 9.2 8 Oeste 22 Oeste 0 -- -- 78
2018-03-31 18:00:00 9.8 13 Oeste 26 Sudoeste 0 -- -- 71
2018-03-31 17:00:00 10.7 11 Sudoeste 30 Oeste 0 -- -- 68
2018-03-31 16:00:00 10.7 14 Oeste 27 Oeste 0 -- -- 59
2018-03-31 15:00:00 10.8 12 Sudoeste 27 Sudoeste 0 -- -- 62
2018-03-31 14:00:00 10.4 10 Sudoeste 22 Sudoeste 0 -- -- 71
2018-03-31 13:00:00 9.1 9 Oeste 18 Oeste 0 -- -- 80
2018-03-31 12:00:00 7.8 6 Sudoeste 12 Sudoeste 0 -- -- 93
2018-03-31 11:00:00 5.8 0 Calma 6 Noroeste 0 -- -- 100
2018-03-31 10:00:00 3 0 Calma 5 Noroeste 0 -- -- 100
2018-03-31 09:00:00 2 0 Calma 4 Noroeste 0 -- -- 100
2018-03-31 08:00:00 3 0 Calma 5 Este 0.6 -- -- 100
2018-03-31 07:00:00 3 0 Calma 6 Norte 0 -- -- 100
2018-03-31 06:00:00 3.2 0 Calma 3 Noroeste 0 -- -- 99
2018-03-31 05:00:00 3.8 2 Este 3 Sudeste 0 -- -- 98
2018-03-31 04:00:00 3.8 2 Sur 8 Noroeste 0 -- -- 97
2018-03-31 03:00:00 4.7 2 Noroeste 26 Noroeste 0.8 -- -- 96
2018-03-31 02:00:00 5.5 9 Noroeste 20 Noroeste 3 -- -- 97
2018-03-31 01:00:00 5.2 7 Noroeste 32 Oeste 1 -- -- 95
2018-03-31 00:00:00 5.2 15 Noroeste 30 Oeste 0.8 -- -- 95
2018-03-30 23:00:00 4.4 6 Noroeste 35 Noroeste 3.8 -- -- 96
2018-03-30 22:00:00 4.8 15 Noroeste 50 Oeste 3.4 -- -- 91
2018-03-30 21:00:00 6.5 14 Oeste 44 Noroeste 0 -- -- 84
2018-03-30 20:00:00 6.9 21 Oeste 47 Noroeste 0 -- -- 83
2018-03-30 19:00:00 7 15 Oeste 46 Noroeste 2.8 -- -- 91
2018-03-30 18:00:00 6 9 Sudoeste 49 Oeste 2.4 -- -- 95
2018-03-30 17:00:00 6 12 Sudoeste 32 Oeste 1.8 -- -- 94
2018-03-30 16:00:00 6 18 Oeste 42 Oeste 1.8 -- -- 95
2018-03-30 15:00:00 5.4 12 Sur 47 Sudoeste 1.8 -- -- 94
2018-03-30 14:00:00 5.4 12 Sudoeste 50 Sudoeste 2.4 -- -- 93
2018-03-30 13:00:00 5.7 11 Sudoeste 33 Sudoeste 1.2 -- -- 93
2018-03-30 12:00:00 5.8 17 Sudoeste 38 Sur 0.6 -- -- 93
2018-03-30 11:00:00 4.6 9 Sur 26 Sudoeste 1.8 -- -- 99
2018-03-30 10:00:00 3.5 8 Oeste 26 Sur 2.6 -- -- 99
2018-03-30 09:00:00 3.5 8 Sur 17 Sur 0 -- -- 99
2018-03-30 08:00:00 3 4 Sudoeste 20 Sudoeste 0.4 -- -- 100
2018-03-30 07:00:00 2.5 4 Sudoeste 9 Sudoeste 0.4 -- -- 100
2018-03-30 06:00:00 2 2 Sudoeste 8 Sur 1 -- -- 100
2018-03-30 05:00:00 1.3 0 Calma 5 Norte 0.2 -- -- 100
2018-03-30 04:00:00 1.7 2 Sudeste 8 Noroeste 0.6 -- -- 98
2018-03-30 03:00:00 2.3 3 Sur 13 Noroeste 0 -- -- 96
2018-03-30 02:00:00 2.9 7 Noroeste 37 Noroeste 1 -- -- 91
2018-03-30 01:00:00 4.2 10 Oeste 34 Noroeste 0 -- -- 93
2018-03-30 00:00:00 4.3 17 Noroeste 41 Oeste 3.2 -- -- 94
2018-03-29 23:00:00 5 10 Noroeste 30 Oeste 0.4 -- -- 97
2018-03-29 22:00:00 4.9 21 Oeste 54 Noroeste 3.2 -- -- 95
2018-03-29 21:00:00 5.7 13 Sudoeste 37 Sudoeste 3.8 -- -- 96
2018-03-29 20:00:00 6.1 12 Sudoeste 27 Sudoeste 1.6 -- -- 96
2018-03-29 19:00:00 5.1 3 Sur 33 Noroeste 1.8 -- -- 94
2018-03-29 18:00:00 8 12 Sudoeste 30 Sudoeste 0.4 -- -- 89
2018-03-29 17:00:00 8.6 13 Sudoeste 34 Sudoeste 1.2 -- -- 92
2018-03-29 16:00:00 7 8 Sudoeste 28 Oeste 0.6 -- -- 97
2018-03-29 15:00:00 6.6 10 Sudoeste 28 Oeste 2.2 -- -- 95
2018-03-29 14:00:00 7.6 14 Sudoeste 32 Oeste 3.4 -- -- 97
2018-03-29 13:00:00 7.1 12 Sudoeste 31 Oeste 4 -- -- 100
2018-03-29 12:00:00 6.4 9 Sudoeste 22 Oeste 0.4 -- -- 100
2018-03-29 11:00:00 5.5 5 Sudoeste 17 Sudoeste 4.2 -- -- 100
2018-03-29 10:00:00 5 5 Sudoeste 18 Sur 0.8 -- -- 100
2018-03-29 09:00:00 4.6 9 Sudoeste 19 Sudoeste 0 -- -- 100
2018-03-29 08:00:00 4 0 Calma 8 Sudoeste 0 -- -- 100
2018-03-29 07:00:00 2.7 2 Noroeste 6 Noroeste 0.4 -- -- 100
2018-03-29 06:00:00 1.8 4 Noroeste 6 Noroeste 0 -- -- 100
2018-03-29 05:00:00 2.5 0 Calma 7 Noroeste 0 -- -- 100
2018-03-29 04:00:00 2.2 0 Calma 6 Noroeste 0 -- -- 100
2018-03-29 03:00:00 1.3 0 Calma 8 Norte 0 -- -- 99
2018-03-29 02:00:00 2 0 Calma 4 Nordeste 0 -- -- 98
2018-03-29 01:00:00 3.1 0 Calma 4 Noroeste 0 -- -- 97
2018-03-29 00:00:00 5.3 0 Calma 7 Noroeste 0 -- -- 94
2018-03-28 23:00:00 6.5 2 Este 8 Norte 0 -- -- 92
2018-03-28 22:00:00 7.3 0 Calma 16 Norte 0 -- -- 90
2018-03-28 21:00:00 8 2 Nordeste 13 Nordeste 0 -- -- 91
2018-03-28 20:00:00 9.6 10 Norte 27 Noroeste 0 -- -- 92
2018-03-28 19:00:00 10.4 11 Sudoeste 21 Sudoeste 0 -- -- 97
2018-03-28 18:00:00 9.9 8 Sudoeste 21 Oeste 0.2 -- -- 100
2018-03-28 17:00:00 9.5 7 Sudoeste 21 Oeste 1.4 -- -- 99
2018-03-28 16:00:00 9.6 9 Oeste 24 Sudoeste 1 -- -- 98
2018-03-28 15:00:00 9.9 9 Sudoeste 36 Sudoeste 1.6 -- -- 99
2018-03-28 14:00:00 9.5 11 Sudoeste 26 Sudoeste 4.2 -- -- 100
2018-03-28 13:00:00 9.2 7 Sudoeste 21 Sudoeste 2.4 -- -- 99
2018-03-28 12:00:00 8.7 6 Sur 20 Sudoeste 0.6 -- -- 99
2018-03-28 11:00:00 8.4 9 Sudoeste 22 Sur 0.6 -- -- 99
2018-03-28 10:00:00 8.1 5 Oeste 15 Sudoeste 1 -- -- 99
2018-03-28 09:00:00 8 5 Sur 15 Sur 0 -- -- 99
2018-03-28 08:00:00 8 5 Sudoeste 12 Oeste 0 -- -- 98
2018-03-28 07:00:00 7.7 4 Sudoeste 10 Sur 0.2 -- -- 98
2018-03-28 06:00:00 7.7 3 Oeste 12 Oeste 0.4 -- -- 96
2018-03-28 05:00:00 8.1 4 Oeste 11 Sur 0 -- -- 93
2018-03-28 04:00:00 8.2 4 Oeste 9 Sudoeste 0 -- -- 92
2018-03-28 03:00:00 8.1 3 Sur 17 Sudoeste 0 -- -- 92
2018-03-28 02:00:00 8.2 6 Sudoeste 18 Oeste 0 -- -- 90
2018-03-28 01:00:00 8.4 8 Sudoeste 20 Oeste 0 -- -- 92
2018-03-28 00:00:00 8.6 5 Oeste 13 Oeste 0 -- -- 92
2018-03-27 23:00:00 8.8 6 Sudoeste 14 Sudoeste 0 -- -- 91
2018-03-27 22:00:00 9.5 6 Sudoeste 14 Sudoeste 0 -- -- 90
2018-03-27 21:00:00 10.4 4 Sudoeste 12 Sudoeste 0 -- -- 87
2018-03-27 20:00:00 12.4 8 Oeste 17 Oeste 0 -- -- 78
2018-03-27 19:00:00 14.1 8 Oeste 18 Sudoeste 0 -- -- 71
2018-03-27 18:00:00 14.5 9 Sudoeste 19 Sudoeste 0 -- -- 71
2018-03-27 17:00:00 13.9 8 Oeste 18 Oeste 0 -- -- 72
2018-03-27 16:00:00 14 9 Oeste 18 Oeste 0 -- -- 73
2018-03-27 15:00:00 13.6 8 Oeste 18 Sudoeste 0 -- -- 73
2018-03-27 14:00:00 12.3 5 Oeste 16 Sudoeste 0 -- -- 77
2018-03-27 13:00:00 10.8 5 Oeste 16 Oeste 0 -- -- 87
2018-03-27 12:00:00 10.4 4 Oeste 10 Oeste 0 -- -- 88
2018-03-27 11:00:00 9.8 3 Sur 9 Oeste 0 -- -- 92
2018-03-27 10:00:00 9 3 Oeste 11 Oeste 0 -- -- 99
2018-03-27 09:00:00 8.6 3 Oeste 6 Oeste 0 -- -- 100
2018-03-27 08:00:00 8.5 0 Calma 4 Sudoeste 0 -- -- 100
2018-03-27 07:00:00 8.7 2 Sudoeste 11 Oeste 0 -- -- 100
2018-03-27 06:00:00 8.7 3 Oeste 10 Oeste 0 -- -- 100
2018-03-27 05:00:00 8.7 0 Calma 5 Oeste 0 -- -- 100
2018-03-27 04:00:00 8.7 3 Sudoeste 8 Sudoeste 0 -- -- 99
2018-03-27 03:00:00 8.6 0 Calma 3 Sudeste 0 -- -- 99
2018-03-27 02:00:00 8.5 0 Calma 3 Noroeste 0 -- -- 99
2018-03-27 01:00:00 8.5 0 Calma 4 Noroeste 0 -- -- 98
2018-03-27 00:00:00 8.5 0 Calma -- -- 0 -- -- 97
2018-03-26 23:00:00 8.6 0 Calma 3 Este 0 -- -- 96
2018-03-26 22:00:00 9.1 2 Sudoeste 6 Sudoeste 0 -- -- 91
2018-03-26 21:00:00 9.9 5 Sudoeste 9 Oeste 0 -- -- 86
2018-03-26 20:00:00 10.6 2 Sudoeste 10 Oeste 0 -- -- 82
2018-03-26 19:00:00 10.5 5 Noroeste 13 Sudoeste 0 -- -- 78
2018-03-26 18:00:00 10.9 5 Oeste 13 Sudoeste 0 -- -- 75
2018-03-26 17:00:00 11.3 6 Oeste 14 Noroeste 0 -- -- 71
2018-03-26 16:00:00 11.1 6 Oeste 17 Oeste 0 -- -- 73
2018-03-26 15:00:00 11.2 8 Oeste 17 Sudoeste 0 -- -- 70
2018-03-26 14:00:00 10.4 7 Sudoeste 14 Sudoeste 0 -- -- 76
2018-03-26 13:00:00 9.8 6 Sudoeste 15 Sudoeste 0 -- -- 79
2018-03-26 12:00:00 9.1 2 Noroeste 6 Oeste 0 -- -- 80
2018-03-26 11:00:00 6.4 0 Calma 6 Noroeste 0 -- -- 100
2018-03-26 10:00:00 4.2 0 Calma 4 Noroeste 0 -- -- 100
2018-03-26 09:00:00 3 0 Calma 6 Noroeste 0 -- -- 100
2018-03-26 08:00:00 2.1 4 Norte 9 Norte 0 -- -- 99
2018-03-26 07:00:00 2.1 2 Norte 5 Noroeste 0 -- -- 98
2018-03-26 06:00:00 2.2 3 Norte 6 Noroeste 0 -- -- 99
2018-03-26 05:00:00 1.5 0 Calma 8 Noroeste 0 -- -- 98
2018-03-26 04:00:00 1.6 0 Calma 5 Noroeste 0 -- -- 97
2018-03-26 03:00:00 2 0 Calma 5 Noroeste 0 -- -- 96
2018-03-26 02:00:00 2.8 0 Calma 7 Nordeste 0 -- -- 95
2018-03-26 01:00:00 3.1 3 Nordeste 5 Nordeste 0 -- -- 94
2018-03-26 00:00:00 4.3 2 Nordeste 6 Nordeste 0 -- -- 89
2018-03-25 23:00:00 5.9 3 Nordeste 7 Este 0 -- -- 84
2018-03-25 22:00:00 6.3 3 Este 13 Noroeste 0 -- -- 81
2018-03-25 21:00:00 7.7 8 Norte 26 Norte 0 -- -- 73
2018-03-25 20:00:00 9.9 10 Norte 26 Norte 0 -- -- 62
2018-03-25 19:00:00 9.8 9 Norte 31 Norte 0 -- -- 67
2018-03-25 18:00:00 9.7 11 Norte 23 Nordeste 0 -- -- 71
2018-03-25 17:00:00 9.4 8 Norte 33 Noroeste 0.2 -- -- 78
2018-03-25 16:00:00 10.2 5 Norte 28 Norte 0 -- -- 68
2018-03-25 15:00:00 8.8 5 Norte 39 Noroeste 0.2 -- -- 86
2018-03-25 14:00:00 8.8 6 Noroeste 32 Noroeste 0 -- -- 83
2018-03-25 13:00:00 7.9 11 Noroeste 25 Noroeste 0 -- -- 83
2018-03-25 12:00:00 7.9 15 Noroeste 24 Noroeste 0 -- -- 83
2018-03-25 11:00:00 5.8 13 Norte 27 Noroeste 0 -- -- 95
2018-03-25 10:00:00 2.9 0 Calma 8 Este 0 -- -- 100
2018-03-25 09:00:00 1.9 2 Nordeste 6 Nordeste 0 -- -- 99
2018-03-25 08:00:00 2.4 2 Norte 6 Nordeste 0 -- -- 98
2018-03-25 07:00:00 3.1 3 Nordeste 6 Norte 0 -- -- 98
2018-03-25 06:00:00 3.3 3 Nordeste 9 Nordeste 0 -- -- 98
2018-03-25 05:00:00 3.4 3 Norte 6 Nordeste 0 -- -- 97
2018-03-25 03:00:00 3.9 2 Norte 6 Nordeste 0.8 -- -- 98
2018-03-25 01:00:00 4.3 2 Nordeste 5 Nordeste 1 -- -- 98
2018-03-25 00:00:00 4.5 0 Calma 5 Nordeste 0.8 -- -- 97
2018-03-24 23:00:00 4.7 2 Sudeste 6 Oeste 0.8 -- -- 95
2018-03-24 22:00:00 5.2 4 Noroeste 31 Sudoeste 0.8 -- -- 89
2018-03-24 21:00:00 6.2 6 Sudoeste 15 Oeste 0.6 -- -- 93
2018-03-24 20:00:00 6.6 0 Calma 14 Oeste 0 -- -- 90
2018-03-24 19:00:00 6.9 5 Oeste 15 Oeste 0 -- -- 88
2018-03-24 18:00:00 6.7 11 Noroeste 46 Noroeste 0.8 -- -- 88
2018-03-24 17:00:00 8.6 19 Noroeste 41 Noroeste 0 -- -- 70
2018-03-24 16:00:00 9.5 20 Noroeste 51 Oeste 0 -- -- 68
2018-03-24 15:00:00 10 26 Noroeste 52 Oeste 0 -- -- 67
2018-03-24 14:00:00 9 27 Noroeste 45 Noroeste 0 -- -- 76
2018-03-24 13:00:00 7 12 Noroeste 44 Oeste 2.4 -- -- 95
2018-03-24 12:00:00 7.8 22 Noroeste 44 Noroeste 0 -- -- 81
2018-03-24 11:00:00 6.9 16 Noroeste 47 Noroeste 0.8 -- -- 86
2018-03-24 10:00:00 6.5 18 Noroeste 41 Noroeste 0.2 -- -- 85
2018-03-24 09:00:00 5.1 15 Noroeste 32 Oeste 2.8 -- -- 90
2018-03-24 08:00:00 5.7 12 Noroeste 42 Oeste 0.4 -- -- 85
2018-03-24 07:00:00 5.4 11 Noroeste 37 Noroeste 0.8 -- -- 88
2018-03-24 06:00:00 5.9 14 Oeste 35 Oeste 0.2 -- -- 83
2018-03-24 05:00:00 5.3 12 Noroeste 30 Noroeste 0.4 -- -- 88
2018-03-24 04:00:00 4.9 9 Noroeste 37 Oeste 2.6 -- -- 90
2018-03-24 03:00:00 5.8 10 Oeste 26 Oeste 0 -- -- 79
2018-03-24 02:00:00 5.2 4 Oeste 22 Noroeste 0 -- -- 83
2018-03-24 01:00:00 5.3 11 Noroeste 39 Noroeste 0 -- -- 81
2018-03-24 00:00:00 5.2 6 Oeste 22 Oeste 0 -- -- 93
2018-03-23 23:00:00 5.1 9 Oeste 39 Noroeste 1.2 -- -- 92
2018-03-23 22:00:00 6.2 9 Noroeste 42 Oeste 0 -- -- 85
2018-03-23 21:00:00 6.8 10 Noroeste 21 Noroeste 0 -- -- 88
2018-03-23 20:00:00 6.9 9 Noroeste 40 Norte 0.2 -- -- 94
2018-03-23 19:00:00 6.9 30 Noroeste 57 Noroeste 9 -- -- 96
2018-03-23 18:00:00 9.4 18 Sudoeste 51 Sudoeste 5.2 -- -- 97
2018-03-23 17:00:00 9.5 19 Sudoeste 47 Sudoeste 4.4 -- -- 94
2018-03-23 16:00:00 10.4 18 Sudoeste 45 Sudoeste 0 -- -- 88
2018-03-23 15:00:00 11.1 14 Oeste 39 Oeste 0 -- -- 86
2018-03-23 14:00:00 10.5 15 Sudoeste 32 Sudoeste 0 -- -- 92
2018-03-23 13:00:00 9.6 12 Sudoeste 28 Sudoeste 0.2 -- -- 100
2018-03-23 12:00:00 8.9 7 Sudoeste 18 Sudoeste 0.4 -- -- 100
2018-03-23 11:00:00 8.4 6 Sudoeste 14 Sudoeste 0 -- -- 100
2018-03-23 10:00:00 8.3 4 Oeste 11 Sudoeste 0 -- -- 100
2018-03-23 09:00:00 7.7 3 Oeste 9 Oeste 0.2 -- -- 100
2018-03-23 08:00:00 7.4 0 Calma 11 Sur 1 -- -- 100
2018-03-23 07:00:00 6.9 0 Calma 6 Sudoeste 0.4 -- -- 100
2018-03-23 06:00:00 6.6 0 Calma 4 Noroeste 1 -- -- 100
2018-03-23 05:00:00 6.4 0 Calma 5 Oeste 0.4 -- -- 100
2018-03-23 04:00:00 5.8 0 Calma 5 Noroeste 1.4 -- -- 99
2018-03-23 03:00:00 5.5 0 Calma 4 Noroeste 1.2 -- -- 99
2018-03-23 02:00:00 5.3 0 Calma 4 Norte 0.2 -- -- 98
2018-03-23 01:00:00 5.1 0 Calma 4 Sur 0.4 -- -- 96
2018-03-23 00:00:00 5.4 2 Sudoeste 11 Sudoeste 0.4 -- -- 92